Time;durP1;ratioP1;P1;durP2;ratioP2;P2;SDS_P1;SDS_P2;PMS_P1;PMS_P2;Temp;Humidity;BMP_temperature;BMP_pressure;BME280_temperature;BME280_humidity;BME280_pressure;Samples;Min_cycle;Max_cycle;Signal;HPM_P1;HPM_P2
2023/08/19 00:01:55;;;;;;;90.37;83.90;;;;;;;18.27;100.00;101811.59;5091483;28;20433;-39
2023/08/19 00:04:23;;;;;;;88.30;80.90;;;;;;;18.25;100.00;101811.81;5091028;28;20465;-41
2023/08/19 00:06:50;;;;;;;89.63;83.43;;;;;;;18.27;100.00;101813.47;5091576;28;20881;-38
2023/08/19 00:09:18;;;;;;;91.17;85.00;;;;;;;18.30;100.00;101803.06;5091342;28;20503;-41
2023/08/19 00:11:46;;;;;;;89.73;82.00;;;;;;;18.29;100.00;101800.56;5091208;28;20425;-42
2023/08/19 00:14:15;;;;;;;92.37;85.97;;;;;;;18.29;100.00;101797.88;5090916;28;20988;-40
2023/08/19 00:16:44;;;;;;;91.37;84.00;;;;;;;18.25;100.00;101806.41;5091261;28;20544;-41
2023/08/19 00:19:12;;;;;;;89.07;82.20;;;;;;;18.23;100.00;101800.41;5091304;28;20480;-39
2023/08/19 00:21:40;;;;;;;96.07;89.13;;;;;;;18.21;100.00;101807.91;5091300;28;20869;-39
2023/08/19 00:24:07;;;;;;;100.57;89.73;;;;;;;18.23;100.00;101803.13;5090771;28;21005;-40
2023/08/19 00:26:35;;;;;;;97.47;90.53;;;;;;;18.27;100.00;101813.47;5091161;28;20536;-41
2023/08/19 00:29:03;;;;;;;98.63;91.50;;;;;;;18.31;100.00;101809.28;5091247;28;20429;-43
2023/08/19 00:31:32;;;;;;;99.23;92.33;;;;;;;18.28;100.00;101812.44;5091091;28;21016;-39
2023/08/19 00:34:00;;;;;;;97.27;90.40;;;;;;;18.29;100.00;101803.28;5090948;28;20822;-38
2023/08/19 00:36:28;;;;;;;99.90;92.90;;;;;;;18.22;100.00;101803.31;5091290;28;21234;-41
2023/08/19 00:38:56;;;;;;;99.70;93.30;;;;;;;18.27;100.00;101791.88;5091095;28;20574;-40
2023/08/19 00:41:23;;;;;;;96.73;89.57;;;;;;;18.29;100.00;101798.69;5091272;28;20439;-41
2023/08/19 00:43:51;;;;;;;98.27;91.73;;;;;;;18.31;100.00;101782.28;5090802;28;20463;-39
2023/08/19 00:46:19;;;;;;;104.13;97.40;;;;;;;18.27;100.00;101787.31;5091184;28;20457;-40
2023/08/19 00:48:48;;;;;;;100.07;93.67;;;;;;;18.26;100.00;101788.34;5091235;28;20431;-42
2023/08/19 00:51:17;;;;;;;102.23;96.30;;;;;;;18.25;100.00;101787.50;5090907;28;20425;-39
2023/08/19 00:53:45;;;;;;;96.77;90.03;;;;;;;18.25;100.00;101776.72;5090494;28;20518;-41
2023/08/19 00:56:13;;;;;;;99.00;93.00;;;;;;;18.26;100.00;101782.94;5091105;28;20919;-41
2023/08/19 00:58:41;;;;;;;101.27;94.90;;;;;;;18.29;100.00;101797.88;5091026;28;21022;-41
2023/08/19 01:01:09;;;;;;;100.33;92.83;;;;;;;18.28;100.00;101775.44;5092758;28;20571;-40
2023/08/19 01:03:37;;;;;;;102.30;95.27;;;;;;;18.28;100.00;101780.03;5094089;28;20901;-41
2023/08/19 01:06:19;;;;;;;95.03;89.33;;;;;;;18.27;100.00;101781.91;5094458;28;20937;-40
2023/08/19 01:09:04;;;;;;;100.73;94.60;;;;;;;18.27;100.00;101783.78;5094973;28;20519;-40
2023/08/19 01:11:52;;;;;;;102.70;96.53;;;;;;;18.29;100.00;101779.81;5094494;28;20429;-40
2023/08/19 01:14:35;;;;;;;99.80;93.83;;;;;;;18.27;100.00;101773.81;5094127;28;20525;-41
2023/08/19 01:17:06;;;;;;;103.73;96.90;;;;;;;18.32;100.00;101781.22;5094710;28;21052;-39
2023/08/19 01:19:34;;;;;;;100.80;94.33;;;;;;;18.31;100.00;101782.28;5094692;28;20425;-41
2023/08/19 01:22:07;;;;;;;103.90;97.53;;;;;;;18.35;100.00;101778.91;5094164;28;20949;-40
2023/08/19 01:24:37;;;;;;;102.83;97.80;;;;;;;18.34;100.00;101779.16;5093872;28;20459;-40
2023/08/19 01:27:06;;;;;;;105.27;98.83;;;;;;;18.33;100.00;101774.78;5094431;28;20476;-39
2023/08/19 01:29:34;;;;;;;103.30;97.40;;;;;;;18.36;100.00;101772.47;5094350;28;20429;-40
2023/08/19 01:32:03;;;;;;;105.20;98.60;;;;;;;18.35;100.00;101765.41;5093968;28;20433;-40
2023/08/19 01:34:30;;;;;;;106.00;98.80;;;;;;;18.35;100.00;101764.56;5093858;28;20522;-40
2023/08/19 01:37:07;;;;;;;107.13;100.70;;;;;;;18.35;100.00;101751.91;5094005;28;20540;-39
2023/08/19 01:39:37;;;;;;;108.30;101.30;;;;;;;18.32;100.00;101760.44;5094301;28;20445;-41
2023/08/19 01:42:06;;;;;;;107.53;100.53;;;;;;;18.34;100.00;101762.94;5093832;28;20455;-40
2023/08/19 01:44:34;;;;;;;105.57;98.77;;;;;;;18.37;100.00;101763.31;5093542;28;20453;-42
2023/08/19 01:47:12;;;;;;;112.30;105.53;;;;;;;18.40;100.00;101768.25;5093833;28;20453;-40
2023/08/19 01:49:40;;;;;;;111.97;104.80;;;;;;;18.39;100.00;101755.00;5093899;28;20486;-41
2023/08/19 01:52:08;;;;;;;106.40;100.00;;;;;;;18.37;100.00;101765.19;5093679;28;20516;-40
2023/08/19 01:54:37;;;;;;;107.40;100.93;;;;;;;18.39;100.00;101755.81;5093536;28;20488;-41
2023/08/19 01:57:05;;;;;;;113.53;106.67;;;;;;;18.41;100.00;101759.13;5093815;28;20872;-41
2023/08/19 01:59:33;;;;;;;103.23;96.87;;;;;;;18.40;100.00;101759.34;5093536;28;20487;-41
2023/08/19 02:02:01;;;;;;;108.17;101.53;;;;;;;18.41;100.00;101756.41;5093141;28;20465;-41
2023/08/19 02:04:29;;;;;;;106.77;100.47;;;;;;;18.41;100.00;101748.31;5093141;28;20453;-41
2023/08/19 02:06:57;;;;;;;111.47;104.27;;;;;;;18.39;100.00;101746.88;5093578;28;20445;-44
2023/08/19 02:09:25;;;;;;;116.40;109.30;;;;;;;18.36;100.00;101748.16;5093664;28;20524;-41
2023/08/19 02:11:54;;;;;;;106.73;100.67;;;;;;;18.36;100.00;101748.16;5093231;28;20464;-40
2023/08/19 02:14:22;;;;;;;112.00;105.33;;;;;;;18.34;100.00;101744.03;5092973;28;20888;-43
2023/08/19 02:16:49;;;;;;;101.50;95.67;;;;;;;18.32;100.00;101743.41;5093109;28;20795;-42
2023/08/19 02:19:17;;;;;;;107.37;100.93;;;;;;;18.34;100.00;101746.75;5093465;28;20503;-40
2023/08/19 02:21:45;;;;;;;106.50;100.60;;;;;;;18.35;100.00;101741.09;5093043;28;20491;-40
2023/08/19 02:24:13;;;;;;;105.50;98.60;;;;;;;18.30;100.00;101749.06;5092570;28;21069;-40
2023/08/19 02:26:40;;;;;;;102.60;96.77;;;;;;;18.32;100.00;101740.72;5093236;28;20453;-41
2023/08/19 02:29:09;;;;;;;109.90;103.83;;;;;;;18.34;100.00;101744.03;5093071;28;20457;-40
2023/08/19 02:31:37;;;;;;;102.90;97.00;;;;;;;18.34;100.00;101739.44;5092765;28;20413;-40
2023/08/19 02:34:05;;;;;;;102.87;97.00;;;;;;;18.34;100.00;101746.75;5092759;28;20537;-40
2023/08/19 02:36:33;;;;;;;103.30;97.40;;;;;;;18.33;100.00;101755.88;5093084;28;20529;-41
2023/08/19 02:39:00;;;;;;;107.80;102.10;;;;;;;18.36;100.00;101744.63;5093009;28;20429;-42
2023/08/19 02:41:28;;;;;;;105.30;99.10;;;;;;;18.33;100.00;101745.09;5092672;28;20472;-39
2023/08/19 02:43:56;;;;;;;110.27;103.53;;;;;;;18.32;100.00;101746.94;5092376;28;20871;-40
2023/08/19 02:46:25;;;;;;;106.50;100.27;;;;;;;18.31;100.00;101753.38;5092586;28;20540;-41
2023/08/19 02:48:53;;;;;;;106.00;99.43;;;;;;;18.33;100.00;101751.31;5092906;28;20437;-44
2023/08/19 02:51:21;;;;;;;109.27;102.90;;;;;;;18.34;100.00;101752.94;5092605;28;20433;-40
2023/08/19 02:53:48;;;;;;;105.40;99.20;;;;;;;18.34;100.00;101747.53;5092044;28;20989;-40
2023/08/19 02:56:16;;;;;;;107.13;100.87;;;;;;;18.33;100.00;101750.47;5092425;28;20512;-39
2023/08/19 02:58:43;;;;;;;104.33;98.73;;;;;;;18.36;100.00;101750.03;5092697;28;20437;-41
2023/08/19 03:01:13;;;;;;;104.90;99.13;;;;;;;18.35;100.00;101754.59;5092621;28;20471;-45
2023/08/19 03:03:44;;;;;;;109.03;103.03;;;;;;;18.32;100.00;101741.56;5092120;28;20505;-42
2023/08/19 03:06:12;;;;;;;104.47;98.97;;;;;;;18.31;100.00;101731.78;5092407;28;20844;-44
2023/08/19 03:08:39;;;;;;;109.67;103.60;;;;;;;18.30;100.00;101729.31;5092437;28;20520;-41
2023/08/19 03:11:07;;;;;;;105.37;99.20;;;;;;;18.29;100.00;101736.59;5092237;28;20739;-40
2023/08/19 03:13:35;;;;;;;104.43;98.73;;;;;;;18.27;100.00;101746.81;5091821;28;20445;-43
2023/08/19 03:16:03;;;;;;;112.47;105.97;;;;;;;18.28;100.00;101742.22;5092145;28;20425;-39
2023/08/19 03:18:31;;;;;;;106.30;100.00;;;;;;;18.28;100.00;101751.13;5092186;28;20945;-41
2023/08/19 03:21:01;;;;;;;104.60;99.00;;;;;;;18.30;100.00;101749.06;5092137;28;20505;-42
2023/08/19 03:23:28;;;;;;;110.30;104.20;;;;;;;18.27;100.00;101748.66;5090938;28;20434;-39
2023/08/19 03:25:57;;;;;;;108.33;102.37;;;;;;;18.29;100.00;101749.25;5092379;28;20463;-39
2023/08/19 03:28:25;;;;;;;111.13;104.10;;;;;;;18.22;100.00;101742.06;5091975;28;20540;-41
2023/08/19 03:30:53;;;;;;;110.90;104.80;;;;;;;18.21;100.00;101740.44;5092116;28;20512;-40
2023/08/19 03:33:21;;;;;;;116.53;109.00;;;;;;;18.20;100.00;101740.63;5091366;28;20429;-41
2023/08/19 03:35:48;;;;;;;113.17;106.97;;;;;;;18.24;100.00;101748.09;5091986;28;20429;-41
2023/08/19 03:38:17;;;;;;;108.23;101.77;;;;;;;18.22;100.00;101744.75;5091807;28;20558;-40
2023/08/19 03:40:45;;;;;;;107.00;100.67;;;;;;;18.23;100.00;101743.72;5091965;28;20429;-40
2023/08/19 03:43:12;;;;;;;111.40;105.40;;;;;;;18.23;100.00;101746.41;5091396;28;20429;-43
2023/08/19 03:45:40;;;;;;;108.70;101.80;;;;;;;18.26;100.00;101742.44;5091871;28;20433;-40
2023/08/19 03:48:08;;;;;;;108.97;103.33;;;;;;;18.23;100.00;101745.59;5091638;28;20958;-38
2023/08/19 03:50:35;;;;;;;105.03;99.37;;;;;;;18.23;100.00;101751.81;5091772;28;20433;-40
2023/08/19 03:53:03;;;;;;;109.57;103.50;;;;;;;18.27;100.00;101748.66;5091550;28;20469;-42
2023/08/19 03:55:32;;;;;;;118.80;112.57;;;;;;;18.23;100.00;101751.00;5091109;28;20484;-40
2023/08/19 03:58:00;;;;;;;108.17;101.87;;;;;;;18.25;100.00;101747.00;5091661;28;20449;-40
2023/08/19 04:00:28;;;;;;;114.67;108.03;;;;;;;18.27;100.00;101741.41;5091728;28;20515;-40
2023/08/19 04:02:55;;;;;;;116.27;109.93;;;;;;;18.28;100.00;101740.34;5091051;28;20511;-42
2023/08/19 04:05:23;;;;;;;104.73;98.60;;;;;;;18.23;100.00;101742.88;5091183;28;20460;-40
2023/08/19 04:07:51;;;;;;;114.57;107.40;;;;;;;18.25;100.00;101744.31;5091672;28;20453;-41
2023/08/19 04:10:19;;;;;;;108.73;102.80;;;;;;;18.20;100.00;101743.34;5091531;28;20508;-40
2023/08/19 04:12:48;;;;;;;116.90;109.17;;;;;;;18.20;100.00;101746.03;5091456;28;20429;-40
2023/08/19 04:15:17;;;;;;;122.77;113.40;;;;;;;18.19;100.00;101745.19;5090955;28;20472;-39
2023/08/19 04:17:45;;;;;;;115.07;108.20;;;;;;;18.20;100.00;101749.56;5091244;28;21186;-40
2023/08/19 04:20:13;;;;;;;116.83;109.93;;;;;;;18.19;100.00;101749.75;5091649;28;20795;-41
2023/08/19 04:22:41;;;;;;;111.80;104.97;;;;;;;18.19;100.00;101738.97;5091223;28;20908;-41
2023/08/19 04:25:09;;;;;;;115.30;108.60;;;;;;;18.21;100.00;101750.41;5090735;28;20464;-41
2023/08/19 04:27:37;;;;;;;122.37;112.40;;;;;;;18.22;100.00;101750.16;5091256;28;20540;-39
2023/08/19 04:30:07;;;;;;;118.37;109.07;;;;;;;18.22;100.00;101742.06;5091223;28;20468;-43
2023/08/19 04:32:36;;;;;;;116.47;108.67;;;;;;;18.25;100.00;101755.13;5091309;28;20516;-42
2023/08/19 04:35:05;;;;;;;118.40;110.40;;;;;;;18.21;100.00;101758.50;5090977;28;20552;-41
2023/08/19 04:37:33;;;;;;;115.43;108.83;;;;;;;18.28;100.00;101763.84;5095151;28;20449;-41
2023/08/19 04:40:01;;;;;;;123.67;113.73;;;;;;;18.31;100.00;101749.88;5095136;28;20825;-43
2023/08/19 04:42:28;;;;;;;123.90;114.50;;;;;;;18.30;100.00;101754.47;5094640;28;20990;-40
2023/08/19 04:44:57;;;;;;;121.93;113.03;;;;;;;18.32;100.00;101748.81;5094672;28;20487;-40
2023/08/19 04:47:26;;;;;;;123.00;114.70;;;;;;;18.38;100.00;101753.31;5094643;28;20459;-39
2023/08/19 04:49:53;;;;;;;118.13;111.47;;;;;;;18.40;100.00;101751.25;5094740;28;20432;-42
2023/08/19 04:52:21;;;;;;;117.37;108.97;;;;;;;18.42;100.00;101760.78;5094484;28;20427;-43
2023/08/19 04:54:49;;;;;;;127.30;116.80;;;;;;;18.45;100.00;101763.03;5094247;28;20874;-40
2023/08/19 04:57:17;;;;;;;124.77;116.07;;;;;;;18.47;100.00;101760.94;5094472;28;20540;-40
2023/08/19 04:59:44;;;;;;;117.90;110.00;;;;;;;18.48;100.00;101757.19;5094468;28;20457;-40
2023/08/19 05:02:12;;;;;;;123.67;112.20;;;;;;;18.54;100.00;101760.91;5103760;28;20953;-45
2023/08/19 05:04:41;;;;;;;123.53;112.37;;;;;;;18.52;100.00;101766.50;5106020;28;20460;-45
2023/08/19 05:07:09;;;;;;;117.97;110.33;;;;;;;18.55;100.00;101760.66;5104160;28;20562;-39
2023/08/19 05:09:37;;;;;;;128.00;118.00;;;;;;;18.58;100.00;101760.19;5106535;28;20459;-39
2023/08/19 05:12:05;;;;;;;129.23;120.20;;;;;;;18.60;100.00;101751.88;5105888;28;20447;-41
2023/08/19 05:14:33;;;;;;;123.30;113.90;;;;;;;18.64;100.00;101755.78;5106906;28;20480;-41
2023/08/19 05:17:00;;;;;;;126.77;117.93;;;;;;;18.63;100.00;101754.16;5105944;28;20453;-45
2023/08/19 05:19:28;;;;;;;126.33;118.00;;;;;;;18.65;100.00;101750.16;5107507;28;20464;-42
2023/08/19 05:21:57;;;;;;;122.87;115.13;;;;;;;18.66;100.00;101745.59;5106028;28;20471;-41
2023/08/19 05:24:25;;;;;;;125.00;116.53;;;;;;;18.68;100.00;101732.66;5106049;28;20453;-46
2023/08/19 05:26:52;;;;;;;131.93;120.80;;;;;;;18.70;100.00;101736.78;5106658;28;20452;-43
2023/08/19 05:29:20;;;;;;;127.97;119.13;;;;;;;18.73;100.00;101735.50;5105549;28;20425;-41
2023/08/19 05:31:48;;;;;;;123.53;114.83;;;;;;;18.81;100.00;101734.41;5107554;28;20460;-39
2023/08/19 05:34:16;;;;;;;114.40;107.63;;;;;;;18.86;100.00;101738.06;5105704;28;20460;-40
2023/08/19 05:36:43;;;;;;;120.23;112.17;;;;;;;18.83;100.00;101743.91;5105630;28;20516;-41
2023/08/19 05:39:12;;;;;;;117.13;110.30;;;;;;;18.89;100.00;101744.88;5104419;28;20425;-40
2023/08/19 05:41:40;;;;;;;123.83;115.10;;;;;;;18.94;100.00;101747.72;5105622;28;20504;-40
2023/08/19 05:44:08;;;;;;;121.07;113.13;;;;;;;18.99;100.00;101753.28;5096386;28;20462;-39
2023/08/19 05:46:35;;;;;;;120.47;112.50;;;;;;;19.02;100.00;101759.06;5082656;28;20454;-47
2023/08/19 05:49:03;;;;;;;115.70;108.87;;;;;;;19.07;100.00;101759.22;5084854;28;20460;-40
2023/08/19 05:51:31;;;;;;;112.97;105.80;;;;;;;19.05;100.00;101746.97;5084367;28;20441;-40
2023/08/19 05:54:00;;;;;;;124.10;116.90;;;;;;;19.03;100.00;101749.91;5084592;28;20824;-42
2023/08/19 05:56:29;;;;;;;124.70;117.20;;;;;;;19.04;100.00;101750.72;5084533;28;20474;-40
2023/08/19 05:58:57;;;;;;;122.70;115.50;;;;;;;19.06;100.00;101746.72;5078185;28;20434;-40
2023/08/19 06:01:24;;;;;;;123.17;115.77;;;;;;;19.07;100.00;101750.28;5076425;28;20425;-40
2023/08/19 06:03:52;;;;;;;119.27;112.67;;;;;;;19.11;100.00;101748.78;5074552;28;20519;-42
2023/08/19 06:06:20;;;;;;;113.03;106.07;;;;;;;19.20;100.00;101753.59;5069780;28;20473;-40
2023/08/19 06:08:48;;;;;;;107.83;101.23;;;;;;;19.29;100.00;101754.13;5065643;28;20431;-39
2023/08/19 06:11:15;;;;;;;100.97;94.67;;;;;;;19.43;100.00;101752.09;5075061;28;20485;-41
2023/08/19 06:13:44;;;;;;;106.43;100.00;;;;;;;19.54;100.00;101754.00;5072655;28;20534;-40
2023/08/19 06:16:12;;;;;;;94.43;88.43;;;;;;;19.57;100.00;101758.94;5074012;28;20849;-40
2023/08/19 06:18:41;;;;;;;91.13;85.70;;;;;;;19.72;100.00;101757.47;5069997;28;20445;-40
2023/08/19 06:21:09;;;;;;;93.37;87.77;;;;;;;19.85;100.00;101746.44;5071315;28;20502;-41
2023/08/19 06:23:36;;;;;;;82.27;77.03;;;;;;;20.02;100.00;101751.13;5071150;28;20984;-42
2023/08/19 06:26:04;;;;;;;79.80;74.73;;;;;;;20.15;100.00;101746.34;5072464;28;20993;-41
2023/08/19 06:28:32;;;;;;;78.70;73.63;;;;;;;20.28;100.00;101738.00;5076989;28;20450;-42
2023/08/19 06:31:01;;;;;;;70.13;65.70;;;;;;;20.51;100.00;101728.19;5069246;28;20948;-41
2023/08/19 06:33:29;;;;;;;73.27;68.50;;;;;;;20.55;100.00;101730.19;5077103;28;20430;-40
2023/08/19 06:35:59;;;;;;;69.50;65.27;;;;;;;20.87;100.00;101728.72;5082334;28;20441;-39
2023/08/19 06:38:29;;;;;;;71.30;66.60;;;;;;;21.23;100.00;101727.53;5080102;28;20997;-40
2023/08/19 06:41:02;;;;;;;72.80;67.97;;;;;;;21.50;100.00;101723.13;5073717;28;20430;-41
2023/08/19 06:43:32;;;;;;;72.40;68.00;;;;;;;21.57;100.00;101724.84;5066274;28;20467;-39
2023/08/19 06:46:02;;;;;;;80.13;75.57;;;;;;;21.34;100.00;101713.09;5082353;28;20709;-40
2023/08/19 06:48:32;;;;;;;85.97;81.13;;;;;;;21.34;100.00;101714.97;5067650;28;20461;-40
2023/08/19 06:51:03;;;;;;;84.30;79.40;;;;;;;21.32;100.00;101709.81;5063961;28;20441;-40
2023/08/19 06:53:31;;;;;;;76.67;71.97;;;;;;;21.35;100.00;101717.47;5070170;28;20462;-39
2023/08/19 06:56:06;;;;;;;81.17;76.57;;;;;;;21.33;100.00;101711.44;5083453;28;20442;-43
2023/08/19 06:58:41;;;;;;;80.10;75.30;;;;;;;21.43;100.00;101718.94;5082793;28;20433;-43
2023/08/19 07:01:17;;;;;;;78.47;73.57;;;;;;;21.49;100.00;101720.66;5084061;28;20449;-43
2023/08/19 07:03:46;;;;;;;86.43;81.60;;;;;;;21.36;100.00;101716.38;5071423;28;20489;-42
2023/08/19 07:06:16;;;;;;;81.03;76.23;;;;;;;21.41;100.00;101721.88;5063462;28;20431;-41
2023/08/19 07:08:45;;;;;;;82.67;77.77;;;;;;;21.26;100.00;101718.91;5079620;28;21292;-40
2023/08/19 07:11:14;;;;;;;84.10;79.37;;;;;;;21.16;100.00;101720.59;5065268;28;20430;-40
2023/08/19 07:13:42;;;;;;;87.70;82.63;;;;;;;21.09;100.00;101718.03;5062085;28;20512;-40
2023/08/19 07:16:13;;;;;;;87.33;82.07;;;;;;;20.96;100.00;101723.72;5068015;28;20441;-42
2023/08/19 07:18:44;;;;;;;86.70;81.90;;;;;;;21.00;100.00;101716.72;5083008;28;20927;-41
2023/08/19 07:21:14;;;;;;;85.87;80.90;;;;;;;21.00;100.00;101721.38;5083308;28;20434;-41
2023/08/19 07:23:45;;;;;;;83.67;78.87;;;;;;;20.97;100.00;101723.47;5066604;28;20453;-39
2023/08/19 07:26:13;;;;;;;78.83;73.97;;;;;;;21.20;100.00;101714.47;5066202;28;20437;-41
2023/08/19 07:28:41;;;;;;;77.97;73.33;;;;;;;21.28;100.00;101705.91;5073461;28;20437;-42
2023/08/19 07:31:12;;;;;;;74.87;70.37;;;;;;;21.38;100.00;101708.81;5071559;28;20435;-41
2023/08/19 07:33:39;;;;;;;76.40;71.43;;;;;;;21.48;100.00;101708.16;5074749;28;20516;-43
2023/08/19 07:36:08;;;;;;;68.47;64.33;;;;;;;21.81;100.00;101707.34;5074639;28;20427;-45
2023/08/19 07:38:36;;;;;;;78.27;73.87;;;;;;;21.81;100.00;101705.47;5061598;28;20434;-41
2023/08/19 07:41:04;;;;;;;71.27;66.87;;;;;;;21.88;100.00;101689.03;5060946;28;20948;-43
2023/08/19 07:43:32;;;;;;;73.90;69.47;;;;;;;22.16;100.00;101685.38;5076110;28;20888;-41
2023/08/19 07:46:00;;;;;;;70.90;66.80;;;;;;;22.40;100.00;101689.53;5067724;28;20426;-42
2023/08/19 07:48:31;;;;;;;69.20;65.10;;;;;;;22.68;100.00;101685.81;5069424;28;20449;-41
2023/08/19 07:50:58;;;;;;;67.30;63.30;;;;;;;22.87;100.00;101678.97;5066401;28;20431;-42
2023/08/19 07:53:26;;;;;;;67.93;63.30;;;;;;;23.31;100.00;101675.06;5080704;28;20433;-42
2023/08/19 07:55:54;;;;;;;65.10;61.17;;;;;;;23.57;100.00;101676.94;5078601;28;20867;-41
2023/08/19 07:58:21;;;;;;;68.57;64.23;;;;;;;23.77;100.00;101672.75;5079444;28;20446;-42
2023/08/19 08:00:49;;;;;;;68.83;64.93;;;;;;;23.85;100.00;101664.06;5072976;28;20430;-40
2023/08/19 08:03:17;;;;;;;65.53;61.60;;;;;;;24.06;100.00;101665.84;5064226;28;20502;-46
2023/08/19 08:05:46;;;;;;;65.37;61.67;;;;;;;24.10;100.00;101664.25;5067453;28;20456;-45
2023/08/19 08:08:14;;;;;;;66.33;62.80;;;;;;;24.24;100.00;101668.16;5067680;28;20947;-42
2023/08/19 08:10:41;;;;;;;64.53;61.07;;;;;;;24.61;100.00;101671.59;5077745;28;20441;-40
2023/08/19 08:13:09;;;;;;;62.43;59.10;;;;;;;24.98;100.00;101670.63;5081240;28;20457;-41
2023/08/19 08:15:37;;;;;;;63.33;59.83;;;;;;;25.11;100.00;101667.41;5077858;28;20473;-41
2023/08/19 08:18:05;;;;;;;60.27;57.00;;;;;;;25.16;100.00;101659.22;5081591;28;20485;-40
2023/08/19 08:20:33;;;;;;;64.70;61.00;;;;;;;25.52;100.00;101649.97;5081403;28;20430;-41
2023/08/19 08:23:03;;;;;;;65.83;62.20;;;;;;;25.61;100.00;101650.22;5081297;28;20495;-40
2023/08/19 08:25:31;;;;;;;64.83;61.53;;;;;;;26.10;100.00;101655.91;5100076;28;20464;-43
2023/08/19 08:27:58;;;;;;;62.40;59.20;;;;;;;26.20;100.00;101651.22;5101353;28;20456;-41
2023/08/19 08:30:26;;;;;;;64.57;61.17;;;;;;;26.08;100.00;101645.22;5101907;28;20511;-42
2023/08/19 08:32:54;;;;;;;60.70;57.70;;;;;;;25.99;100.00;101646.06;5100832;28;20441;-42
2023/08/19 08:35:22;;;;;;;67.40;64.00;;;;;;;25.66;100.00;101639.28;5100168;28;20449;-43
2023/08/19 08:37:50;;;;;;;63.30;59.93;;;;;;;25.47;100.00;101647.22;5100217;28;20476;-43
2023/08/19 08:40:19;;;;;;;62.20;58.90;;;;;;;25.36;100.00;101652.97;5101827;28;20433;-40
2023/08/19 08:42:47;;;;;;;64.87;61.37;;;;;;;25.31;100.00;101656.50;5101534;28;20418;-40
2023/08/19 08:45:15;;;;;;;64.50;61.20;;;;;;;25.17;100.00;101658.13;5101593;28;20469;-40
2023/08/19 08:47:43;;;;;;;64.37;60.77;;;;;;;24.94;100.00;101667.63;5101297;28;20510;-41
2023/08/19 08:50:11;;;;;;;65.87;62.37;;;;;;;24.70;100.00;101663.72;5101648;28;20437;-43
2023/08/19 08:52:40;;;;;;;65.53;62.03;;;;;;;24.59;100.00;101668.31;5099629;28;20999;-45
2023/08/19 08:55:09;;;;;;;70.63;66.63;;;;;;;24.55;100.00;101671.84;5100936;28;20480;-45
2023/08/19 08:57:39;;;;;;;70.30;66.43;;;;;;;24.71;100.00;101679.81;5102027;28;20516;-43
2023/08/19 09:00:08;;;;;;;70.03;65.83;;;;;;;24.85;100.00;101673.91;5101001;28;20522;-47
2023/08/19 09:02:37;;;;;;;65.70;62.20;;;;;;;24.93;100.00;101673.34;5101390;28;20421;-42
2023/08/19 09:05:06;;;;;;;65.10;61.47;;;;;;;25.09;100.00;101664.13;5099477;28;20472;-46
2023/08/19 09:07:39;;;;;;;65.50;61.90;;;;;;;25.16;100.00;101670.94;5102182;28;20475;-40
2023/08/19 09:10:13;;;;;;;65.57;62.13;;;;;;;25.05;100.00;101669.31;5100787;28;21217;-43
2023/08/19 09:12:45;;;;;;;67.60;63.80;;;;;;;25.05;100.00;101666.56;5098868;28;20438;-43
2023/08/19 09:15:14;;;;;;;65.77;62.13;;;;;;;25.17;100.00;101669.03;5100343;28;20469;-42
2023/08/19 09:17:43;;;;;;;62.53;59.20;;;;;;;24.95;100.00;101672.00;5100457;28;20459;-47
2023/08/19 09:20:13;;;;;;;63.60;60.17;;;;;;;24.87;100.00;101661.63;5100207;28;20421;-41
2023/08/19 09:22:42;;;;;;;65.80;62.20;;;;;;;24.82;100.00;101663.53;5099959;28;20428;-43
2023/08/19 09:25:15;;;;;;;65.90;62.20;;;;;;;24.65;100.00;101656.34;5099024;28;20507;-40
2023/08/19 09:27:46;;;;;;;61.07;57.87;;;;;;;24.80;100.00;101658.28;5097525;28;20449;-40
2023/08/19 09:30:16;;;;;;;64.27;60.63;;;;;;;24.78;100.00;101655.84;5101335;28;20436;-40
2023/08/19 09:32:45;;;;;;;61.50;58.13;;;;;;;24.70;100.00;101653.63;5100428;28;20482;-40
2023/08/19 09:35:14;;;;;;;67.07;63.40;;;;;;;24.55;100.00;101647.31;5100522;28;20457;-43
2023/08/19 09:37:43;;;;;;;64.37;60.97;;;;;;;24.43;100.00;101652.19;5100112;28;20434;-42
2023/08/19 09:40:17;;;;;;;60.30;57.00;;;;;;;24.43;100.00;101641.28;5099088;28;20489;-44
2023/08/19 09:42:49;;;;;;;60.17;56.87;;;;;;;24.45;100.00;101656.28;5098325;28;20471;-43
2023/08/19 09:45:18;;;;;;;60.00;56.80;;;;;;;24.54;100.00;101648.38;5097901;28;20556;-40
2023/08/19 09:47:48;;;;;;;63.50;60.27;;;;;;;24.68;100.00;101653.06;5096513;28;20456;-40
2023/08/19 09:50:17;;;;;;;59.87;56.60;;;;;;;24.68;100.00;101639.44;5096725;28;20456;-45
2023/08/19 09:52:54;;;;;;;61.47;58.07;;;;;;;24.71;100.00;101628.00;5096928;28;20437;-40
2023/08/19 09:55:25;;;;;;;60.37;57.27;;;;;;;24.78;100.00;101642.19;5098882;28;20570;-41
2023/08/19 09:57:56;;;;;;;62.67;59.03;;;;;;;24.72;100.00;101643.28;5099082;28;20488;-39
2023/08/19 10:00:24;;;;;;;59.80;56.47;;;;;;;24.79;100.00;101632.91;5098934;28;20822;-40
2023/08/19 10:02:53;;;;;;;59.80;56.50;;;;;;;24.83;100.00;101635.13;5098807;28;20443;-40
2023/08/19 10:05:21;;;;;;;59.53;56.30;;;;;;;24.78;100.00;101642.19;5098990;28;21050;-39
2023/08/19 10:07:54;;;;;;;60.73;57.23;;;;;;;25.05;100.00;101630.28;5099890;28;20817;-42
2023/08/19 10:10:29;;;;;;;59.77;56.37;;;;;;;25.22;100.00;101637.09;5091463;28;20440;-45
2023/08/19 10:13:01;;;;;;;58.00;54.90;;;;;;;25.33;100.00;101635.19;5096626;28;20428;-40
2023/08/19 10:15:33;;;;;;;59.30;56.20;;;;;;;25.43;100.00;101626.19;5097998;28;21049;-41
2023/08/19 10:18:08;;;;;;;59.00;55.90;;;;;;;25.47;100.00;101621.81;5097422;28;20453;-39
2023/08/19 10:20:37;;;;;;;55.93;52.87;;;;;;;25.39;100.00;101611.44;5098392;28;20428;-40
2023/08/19 10:23:06;;;;;;;54.47;51.70;;;;;;;25.53;100.00;101613.38;5098071;28;20428;-41
2023/08/19 10:25:35;;;;;;;56.70;53.40;;;;;;;25.60;100.00;101613.06;5096885;28;20468;-46
2023/08/19 10:28:11;;;;;;;54.43;51.53;;;;;;;25.59;100.00;101608.72;5097336;28;20540;-40
2023/08/19 10:30:39;;;;;;;52.23;49.43;;;;;;;25.64;100.00;101604.06;5094881;28;20421;-42
2023/08/19 10:33:28;;;;;;;54.00;51.20;;;;;;;25.84;100.00;101589.53;5096128;28;20437;-42
2023/08/19 10:36:02;;;;;;;54.17;51.30;;;;;;;26.00;100.00;101585.66;5097552;28;20441;-41
2023/08/19 10:38:42;;;;;;;53.50;50.70;;;;;;;26.00;100.00;101591.13;5096456;28;21089;-40
2023/08/19 10:41:18;;;;;;;56.77;53.70;;;;;;;25.96;100.00;101602.88;5095470;28;20461;-45
2023/08/19 10:44:07;;;;;;;54.77;51.77;;;;;;;26.14;100.00;101603.09;5088573;28;20509;-42
2023/08/19 10:46:37;;;;;;;53.00;50.40;;;;;;;26.18;100.00;101593.28;5096269;28;20500;-42
2023/08/19 10:49:07;;;;;;;51.03;48.43;;;;;;;26.15;100.00;101598.50;5098893;28;20443;-40
2023/08/19 10:51:53;;;;;;;55.37;52.27;;;;;;;26.61;100.00;101602.63;5098011;28;20456;-45
2023/08/19 10:54:35;;;;;;;53.97;50.97;;;;;;;26.80;100.00;101586.41;5097408;28;20551;-44
2023/08/19 10:57:11;;;;;;;52.40;49.63;;;;;;;26.49;100.00;101591.22;5100940;28;21055;-41
2023/08/19 10:59:42;;;;;;;52.37;49.67;;;;;;;26.43;100.00;101580.59;5100562;28;20455;-42
2023/08/19 11:02:10;;;;;;;49.87;47.17;;;;;;;26.26;100.00;101592.69;5099208;28;20509;-40
2023/08/19 11:04:40;;;;;;;52.00;49.40;;;;;;;26.27;100.00;101590.78;5090365;28;20867;-40